Time;durP1;ratioP1;P1;durP2;ratioP2;P2;SDS_P1;SDS_P2;PMS_P1;PMS_P2;Temp;Humidity;BMP_temperature;BMP_pressure;BME280_temperature;BME280_humidity;BME280_pressure;Samples;Min_cycle;Max_cycle;Signal;HPM_P1;HPM_P2
2022/12/16 00:01:21;;;;;;;310.95;61.63;;;-0.20;99.90;;;;;;5048614;28;20021;-56
2022/12/16 00:03:52;;;;;;;245.32;59.17;;;-0.30;99.90;;;;;;5048479;28;20030;-52
2022/12/16 00:06:19;;;;;;;224.65;58.22;;;-0.30;99.90;;;;;;5048390;28;20449;-54
2022/12/16 00:08:45;;;;;;;204.15;58.92;;;-0.30;99.90;;;;;;5048696;28;20029;-51
2022/12/16 00:11:11;;;;;;;262.73;62.80;;;-0.30;99.90;;;;;;5051745;28;20025;-53
2022/12/16 00:13:39;;;;;;;302.38;61.00;;;-0.30;99.90;;;;;;5051979;28;20025;-54
2022/12/16 00:16:13;;;;;;;226.98;60.88;;;-0.30;99.90;;;;;;5051883;28;20376;-56
2022/12/16 00:18:39;;;;;;;272.55;60.80;;;-0.30;99.90;;;;;;5052115;28;20403;-56
2022/12/16 00:21:10;;;;;;;243.25;58.65;;;-0.30;99.90;;;;;;5051802;28;20025;-54
2022/12/16 00:23:38;;;;;;;241.05;57.60;;;-0.30;99.90;;;;;;5051913;28;20085;-53
2022/12/16 00:26:04;;;;;;;195.27;58.20;;;-0.30;99.90;;;;;;5051765;28;20089;-52
2022/12/16 00:28:30;;;;;;;284.95;62.28;;;-0.20;99.90;;;;;;5051828;28;20104;-54
2022/12/16 00:30:57;;;;;;;199.40;58.60;;;-0.30;99.90;;;;;;5051755;28;20029;-51
2022/12/16 00:33:24;;;;;;;230.55;59.53;;;-0.30;99.90;;;;;;5051658;28;20373;-55
2022/12/16 00:35:50;;;;;;;213.98;59.72;;;-0.20;99.90;;;;;;5051845;28;20028;-50
2022/12/16 00:38:16;;;;;;;239.93;58.38;;;-0.20;99.90;;;;;;5051573;28;20105;-53
2022/12/16 00:40:43;;;;;;;218.25;57.33;;;-0.30;99.90;;;;;;5051540;28;20070;-53
2022/12/16 00:43:09;;;;;;;197.32;55.83;;;-0.30;99.90;;;;;;5051381;28;20029;-52
2022/12/16 00:45:35;;;;;;;220.93;56.45;;;-0.30;99.90;;;;;;5051614;28;20021;-56
2022/12/16 00:48:01;;;;;;;185.30;54.47;;;-0.30;99.90;;;;;;5051468;28;20399;-53
2022/12/16 00:50:26;;;;;;;232.52;61.67;;;-0.30;99.90;;;;;;5051442;28;20026;-56
2022/12/16 00:52:52;;;;;;;205.90;56.88;;;-0.30;99.90;;;;;;5051436;28;20111;-52
2022/12/16 00:55:18;;;;;;;196.85;58.10;;;-0.30;99.90;;;;;;5050197;27;20115;-53
2022/12/16 00:57:44;;;;;;;240.05;61.58;;;-0.30;99.90;;;;;;5051483;28;20217;-55
2022/12/16 01:00:13;;;;;;;217.60;58.70;;;-0.30;99.90;;;;;;5051194;28;20542;-52
2022/12/16 01:02:43;;;;;;;235.32;57.60;;;-0.30;99.90;;;;;;5051276;28;20079;-56
2022/12/16 01:05:12;;;;;;;166.52;55.60;;;-0.20;99.90;;;;;;5051008;28;20125;-56
2022/12/16 01:07:38;;;;;;;172.18;59.83;;;-0.30;99.90;;;;;;5049977;28;20022;-54
2022/12/16 01:10:06;;;;;;;160.73;53.45;;;-0.20;99.90;;;;;;5051012;28;20073;-54
2022/12/16 01:12:32;;;;;;;174.52;56.60;;;-0.20;99.90;;;;;;5049772;28;20077;-56
2022/12/16 01:14:57;;;;;;;148.27;52.05;;;-0.20;99.90;;;;;;5051237;28;20052;-56
2022/12/16 01:17:24;;;;;;;153.13;55.92;;;-0.20;99.90;;;;;;5049620;28;20033;-55
2022/12/16 01:19:51;;;;;;;131.65;50.58;;;-0.20;99.90;;;;;;5051006;28;20029;-57
2022/12/16 01:22:17;;;;;;;131.90;46.85;;;-0.20;99.90;;;;;;5049966;28;20029;-55
2022/12/16 01:24:43;;;;;;;133.07;46.00;;;-0.20;99.90;;;;;;5050954;28;20379;-50
2022/12/16 01:27:09;;;;;;;118.68;46.53;;;-0.20;99.90;;;;;;5050960;28;20025;-54
2022/12/16 01:29:35;;;;;;;119.75;46.28;;;-0.20;99.90;;;;;;5050899;28;20017;-52
2022/12/16 01:32:01;;;;;;;118.63;43.50;;;-0.20;99.90;;;;;;5050687;28;20031;-57
2022/12/16 01:34:26;;;;;;;100.90;43.33;;;-0.20;99.90;;;;;;5050737;28;20028;-56
2022/12/16 01:36:52;;;;;;;116.85;43.20;;;-0.20;99.90;;;;;;5050922;28;20128;-54
2022/12/16 01:39:17;;;;;;;116.72;42.42;;;-0.20;99.90;;;;;;5049996;28;21089;-51
2022/12/16 01:41:43;;;;;;;112.57;41.40;;;-0.20;99.90;;;;;;5049982;28;20021;-54
2022/12/16 01:44:27;;;;;;;109.15;44.72;;;-0.20;99.90;;;;;;5050062;28;20476;-56
2022/12/16 01:47:00;;;;;;;110.90;44.88;;;-0.20;99.90;;;;;;5050002;28;20029;-51
2022/12/16 01:49:35;;;;;;;;;;;-0.20;99.90;;;;;;5050050;28;20421;-53
2022/12/16 01:52:04;;;;;;;98.47;38.53;;;-0.20;99.90;;;;;;5049741;28;19905;-54
2022/12/16 01:54:36;;;;;;;88.47;36.50;;;-0.20;99.90;;;;;;5049739;28;20025;-53
2022/12/16 01:57:08;;;;;;;99.05;39.08;;;-0.20;99.90;;;;;;5050205;28;20032;-55
2022/12/16 01:59:37;;;;;;;106.70;41.50;;;-0.20;99.90;;;;;;5050316;28;20029;-55
2022/12/16 02:02:03;;;;;;;101.80;41.10;;;-0.20;99.90;;;;;;5050331;28;20032;-56
2022/12/16 02:04:29;;;;;;;95.75;40.03;;;-0.20;99.90;;;;;;5050318;28;20022;-55
2022/12/16 02:06:56;;;;;;;112.78;42.58;;;-0.20;99.90;;;;;;5050242;28;20076;-57
2022/12/16 02:09:21;;;;;;;99.10;40.85;;;-0.20;99.90;;;;;;5050096;28;20021;-56
2022/12/16 02:11:59;;;;;;;121.65;43.58;;;-0.10;99.90;;;;;;5050181;28;20049;-51
2022/12/16 02:14:52;;;;;;;107.43;42.65;;;-0.10;99.90;;;;;;5050029;28;20040;-53
2022/12/16 02:17:26;;;;;;;107.38;41.67;;;-0.20;99.90;;;;;;5050130;28;20025;-53
2022/12/16 02:20:17;;;;;;;109.07;40.47;;;-0.20;99.90;;;;;;5050059;28;20061;-56
2022/12/16 02:22:51;;;;;;;108.35;43.50;;;-0.20;99.90;;;;;;5050072;28;20036;-53
2022/12/16 02:25:52;;;;;;;107.30;43.58;;;-0.20;99.90;;;;;;5049852;28;20029;-52
2022/12/16 02:28:52;;;;;;;114.10;42.22;;;-0.20;99.90;;;;;;5048551;28;20028;-57
2022/12/16 02:31:18;;;;;;;96.43;41.20;;;-0.20;99.90;;;;;;4995254;28;20038;-56
2022/12/16 02:34:29;;;;;;;104.28;41.80;;;-0.20;99.90;;;;;;5049865;28;20357;-53
2022/12/16 02:37:00;;;;;;;98.30;41.10;;;-0.20;99.90;;;;;;5049950;28;20021;-51
2022/12/16 02:39:36;;;;;;;97.55;40.15;;;-0.20;99.90;;;;;;5049932;28;20032;-57
2022/12/16 02:42:06;;;;;;;100.97;41.10;;;-0.10;99.90;;;;;;5049670;28;20033;-57
2022/12/16 02:44:59;;;;;;;103.32;41.58;;;-0.20;99.90;;;;;;5049573;28;20021;-56
2022/12/16 02:47:25;;;;;;;98.07;42.28;;;-0.10;99.90;;;;;;5049575;28;20021;-51
2022/12/16 02:49:53;;;;;;;98.97;42.08;;;-0.10;99.90;;;;;;5049622;28;20121;-55
2022/12/16 02:52:23;;;;;;;91.07;38.17;;;-0.10;99.90;;;;;;5049565;28;20025;-54
2022/12/16 02:54:53;;;;;;;93.68;39.70;;;-0.10;99.90;;;;;;5049546;28;20132;-55
2022/12/16 02:57:42;;;;;;;98.78;41.28;;;-0.10;99.90;;;;;;5049268;28;20104;-55
2022/12/16 03:00:13;;;;;;;91.82;40.63;;;-0.10;99.90;;;;;;5049263;28;20049;-54
2022/12/16 03:02:56;;;;;;;95.82;40.95;;;-0.10;99.90;;;;;;5049397;28;20013;-56
2022/12/16 03:05:41;;;;;;;85.60;38.47;;;-0.10;99.90;;;;;;5049238;28;20076;-54
2022/12/16 03:08:12;;;;;;;94.53;39.58;;;-0.10;99.90;;;;;;5049169;28;20018;-56
2022/12/16 03:10:43;;;;;;;89.22;39.58;;;-0.10;99.90;;;;;;5049297;28;20143;-56
2022/12/16 03:13:11;;;;;;;89.53;38.65;;;-0.10;99.90;;;;;;5049071;28;20045;-56
2022/12/16 03:15:39;;;;;;;98.03;41.15;;;-0.10;99.90;;;;;;5049112;28;20028;-55
2022/12/16 03:18:08;;;;;;;96.95;39.88;;;0.00;99.90;;;;;;5049067;28;20040;-53
2022/12/16 03:20:40;;;;;;;101.10;40.15;;;0.00;99.90;;;;;;5049152;28;20658;-56
2022/12/16 03:23:14;;;;;;;89.75;39.88;;;-0.10;99.90;;;;;;5049121;28;20029;-53
2022/12/16 03:25:42;;;;;;;95.97;39.75;;;0.00;99.90;;;;;;5049188;28;20031;-54
2022/12/16 03:28:38;;;;;;;113.90;43.83;;;-0.10;99.90;;;;;;5048999;28;20024;-53
2022/12/16 03:31:16;;;;;;;92.90;39.30;;;0.00;99.90;;;;;;5048788;28;20029;-56
2022/12/16 03:33:50;;;;;;;91.60;39.03;;;0.00;99.90;;;;;;5048982;28;20033;-55
2022/12/16 03:36:21;;;;;;;96.72;41.22;;;0.00;99.90;;;;;;5048850;28;20539;-55
2022/12/16 03:38:47;;;;;;;97.15;37.33;;;0.00;99.90;;;;;;5048900;28;20059;-53
2022/12/16 03:41:15;;;;;;;95.78;41.35;;;0.00;99.90;;;;;;5048873;28;20425;-52
2022/12/16 03:43:42;;;;;;;96.70;37.83;;;0.00;99.90;;;;;;5048247;28;20023;-55
2022/12/16 03:46:10;;;;;;;95.63;40.70;;;0.00;99.90;;;;;;5048677;28;20074;-55
2022/12/16 03:48:43;;;;;;;91.00;39.42;;;0.00;99.90;;;;;;5048817;28;20122;-56
2022/12/16 03:51:14;;;;;;;;;;;0.00;99.90;;;;;;5049194;28;20428;-57
2022/12/16 03:53:40;;;;;;;95.32;38.20;;;0.00;99.90;;;;;;5048774;28;19932;-57
2022/12/16 03:56:06;;;;;;;94.85;39.42;;;0.00;99.90;;;;;;5048402;28;20071;-53
2022/12/16 03:58:34;;;;;;;100.82;40.03;;;0.00;99.90;;;;;;5048651;28;20025;-52
2022/12/16 04:01:00;;;;;;;86.05;38.22;;;0.10;99.90;;;;;;5048633;28;20046;-53
2022/12/16 04:03:25;;;;;;;86.43;35.75;;;0.10;99.90;;;;;;5048672;28;20029;-52
2022/12/16 04:05:51;;;;;;;74.03;33.63;;;0.10;99.90;;;;;;5048328;28;20492;-55
2022/12/16 04:08:17;;;;;;;72.50;36.55;;;0.10;99.90;;;;;;5048336;28;20048;-53
2022/12/16 04:24:31;;;;;;;79.32;34.92;;;0.20;99.90;;;;;;5048448;28;20463;-53
2022/12/16 04:30:17;;;;;;;83.03;36.50;;;0.30;99.90;;;;;;5048477;28;20066;-52
2022/12/16 04:34:24;;;;;;;78.78;34.00;;;0.30;99.90;;;;;;5048106;28;20032;-55
